Time;durP1;ratioP1;P1;durP2;ratioP2;P2;SDS_P1;SDS_P2;PMS_P1;PMS_P2;Temp;Humidity;BMP_temperature;BMP_pressure;BME280_temperature;BME280_humidity;BME280_pressure;Samples;Min_cycle;Max_cycle;Signal;HPM_P1;HPM_P2
2023/10/20 00:01:45;;;;;;;0.50;0.43;;;9.60;99.90;;;;;;5020376;28;20077;-66
2023/10/20 00:04:12;;;;;;;0.68;0.68;;;9.70;99.90;;;;;;5006198;28;20546;-66
2023/10/20 00:06:39;;;;;;;1.95;0.80;;;9.60;99.90;;;;;;5004614;28;20552;-65
2023/10/20 00:09:06;;;;;;;0.30;0.30;;;9.60;99.90;;;;;;5002310;28;20533;-66
2023/10/20 00:11:32;;;;;;;0.15;0.15;;;9.60;99.90;;;;;;5007244;28;20049;-66
2023/10/20 00:13:58;;;;;;;0.82;0.82;;;9.60;99.90;;;;;;5006721;28;20065;-66
2023/10/20 00:16:25;;;;;;;0.40;0.40;;;9.60;99.90;;;;;;4998992;28;20050;-66
2023/10/20 00:18:51;;;;;;;0.10;0.10;;;9.60;99.90;;;;;;5003777;28;20046;-65
2023/10/20 00:21:17;;;;;;;0.57;0.57;;;9.60;99.90;;;;;;5001775;28;20038;-65
2023/10/20 00:23:42;;;;;;;0.32;0.32;;;9.50;99.90;;;;;;5006750;28;20037;-65
2023/10/20 00:26:08;;;;;;;0.10;0.10;;;9.50;99.90;;;;;;5008220;28;20467;-65
2023/10/20 00:28:33;;;;;;;0.63;0.63;;;9.60;99.90;;;;;;5004374;28;20042;-66
2023/10/20 00:30:59;;;;;;;0.52;0.52;;;9.70;99.90;;;;;;5004571;28;20058;-65
2023/10/20 00:33:24;;;;;;;0.75;0.75;;;9.60;99.90;;;;;;5000748;28;20046;-66
2023/10/20 00:35:50;;;;;;;0.20;0.20;;;9.70;99.90;;;;;;5004011;28;20429;-65
2023/10/20 00:38:15;;;;;;;0.20;0.20;;;9.60;99.90;;;;;;5004041;28;20435;-65
2023/10/20 00:40:48;;;;;;;0.35;0.35;;;9.60;99.90;;;;;;5003955;28;20050;-65
2023/10/20 00:43:14;;;;;;;0.20;0.20;;;9.50;99.90;;;;;;5004466;28;20049;-65
2023/10/20 00:45:40;;;;;;;0.22;0.20;;;9.70;99.90;;;;;;4999812;28;20046;-65
2023/10/20 00:48:07;;;;;;;0.05;0.05;;;9.60;99.90;;;;;;5005228;28;20470;-65
2023/10/20 00:50:33;;;;;;;0.17;0.17;;;9.60;99.90;;;;;;5005493;28;20662;-66
2023/10/20 00:53:00;;;;;;;0.13;0.13;;;9.60;99.90;;;;;;5000457;28;20046;-65
2023/10/20 00:55:26;;;;;;;0.00;0.00;;;9.60;99.90;;;;;;5002984;28;20517;-65
2023/10/20 00:57:54;;;;;;;0.10;0.10;;;9.70;99.90;;;;;;5006838;28;20081;-65
2023/10/20 01:00:20;;;;;;;0.10;0.10;;;9.60;99.90;;;;;;5000515;28;20079;-65
2023/10/20 01:02:46;;;;;;;0.52;0.52;;;9.70;99.90;;;;;;4995945;28;20050;-65
2023/10/20 01:05:22;;;;;;;0.47;0.47;;;9.60;99.90;;;;;;5019763;28;20068;-65
2023/10/20 01:07:48;;;;;;;0.43;0.43;;;9.60;99.90;;;;;;5008118;28;20510;-65
2023/10/20 01:10:14;;;;;;;0.22;0.22;;;9.50;99.90;;;;;;4998468;28;20046;-65
2023/10/20 01:12:40;;;;;;;0.10;0.10;;;9.60;99.90;;;;;;5007121;28;20038;-65
2023/10/20 01:15:06;;;;;;;0.10;0.10;;;9.60;99.90;;;;;;4998868;28;20045;-65
2023/10/20 01:17:33;;;;;;;0.00;0.00;;;9.60;99.90;;;;;;5007565;28;20045;-65
2023/10/20 01:20:04;;;;;;;2.08;1.95;;;9.60;99.90;;;;;;5001088;28;20052;-65
2023/10/20 01:22:30;;;;;;;1.60;0.45;;;9.40;99.90;;;;;;5001045;28;20041;-65
2023/10/20 01:24:56;;;;;;;0.40;0.40;;;9.40;99.90;;;;;;5002896;28;20490;-65
2023/10/20 01:27:21;;;;;;;0.85;0.85;;;9.40;99.90;;;;;;5008050;28;20049;-65
2023/10/20 01:29:47;;;;;;;1.08;0.50;;;9.40;99.90;;;;;;5002006;28;20061;-65
2023/10/20 01:32:13;;;;;;;0.25;0.25;;;9.40;99.90;;;;;;4999628;28;20100;-65
2023/10/20 01:34:39;;;;;;;0.52;0.52;;;9.40;99.90;;;;;;5002400;28;20064;-65
2023/10/20 01:37:05;;;;;;;0.10;0.10;;;9.50;99.90;;;;;;5005284;28;20049;-65
2023/10/20 01:39:31;;;;;;;1.02;1.02;;;9.40;99.90;;;;;;4999711;28;20060;-65
2023/10/20 01:41:56;;;;;;;1.25;0.85;;;9.40;99.90;;;;;;4997095;28;20038;-65
2023/10/20 01:44:22;;;;;;;0.40;0.40;;;9.50;99.90;;;;;;5003510;28;20500;-64
2023/10/20 01:46:51;;;;;;;0.10;0.10;;;9.40;99.90;;;;;;5008120;28;20052;-65
2023/10/20 01:49:18;;;;;;;0.30;0.30;;;9.40;99.90;;;;;;4997871;28;20043;-65
2023/10/20 01:51:43;;;;;;;0.38;0.38;;;9.30;99.90;;;;;;5003906;28;20101;-65
2023/10/20 01:54:09;;;;;;;0.73;0.73;;;9.30;99.90;;;;;;4999637;28;20042;-65
2023/10/20 01:56:35;;;;;;;0.47;0.47;;;9.40;99.90;;;;;;5007178;28;20539;-65
2023/10/20 01:59:00;;;;;;;0.20;0.20;;;9.30;99.90;;;;;;5006053;28;20430;-65
2023/10/20 02:01:26;;;;;;;0.10;0.10;;;9.30;99.90;;;;;;5002857;28;20413;-65
2023/10/20 02:03:52;;;;;;;0.85;0.85;;;9.40;99.90;;;;;;4998783;28;20046;-65
2023/10/20 02:06:18;;;;;;;0.10;0.10;;;9.40;99.90;;;;;;5006481;28;20236;-65
2023/10/20 02:08:44;;;;;;;1.15;1.08;;;9.40;99.90;;;;;;5002308;28;20057;-65
2023/10/20 02:11:09;;;;;;;0.52;0.52;;;9.50;99.90;;;;;;5006600;28;20125;-65
2023/10/20 02:13:36;;;;;;;0.17;0.17;;;9.50;99.90;;;;;;5000503;28;20050;-65
2023/10/20 02:16:02;;;;;;;0.10;0.10;;;9.60;99.90;;;;;;5000041;28;20046;-65
2023/10/20 02:18:28;;;;;;;0.55;0.55;;;9.50;99.90;;;;;;5002288;28;20052;-65
2023/10/20 02:21:04;;;;;;;0.40;0.40;;;9.50;99.90;;;;;;5002135;28;20042;-65
2023/10/20 02:23:30;;;;;;;0.35;0.35;;;9.50;99.90;;;;;;5005037;28;20100;-65
2023/10/20 02:26:00;;;;;;;0.20;0.20;;;9.50;99.90;;;;;;5004509;28;20035;-65
2023/10/20 02:28:26;;;;;;;0.30;0.30;;;9.50;99.90;;;;;;5002877;28;20042;-65
2023/10/20 02:30:53;;;;;;;0.17;0.17;;;9.50;99.90;;;;;;5008436;28;20076;-65
2023/10/20 02:33:18;;;;;;;0.60;0.60;;;9.50;99.90;;;;;;5011265;28;20045;-65
2023/10/20 02:35:44;;;;;;;1.20;0.90;;;9.60;99.90;;;;;;5004382;28;20072;-65
2023/10/20 02:38:10;;;;;;;0.80;0.80;;;9.60;99.90;;;;;;5003784;28;20041;-65
2023/10/20 02:40:35;;;;;;;1.30;1.20;;;9.50;99.90;;;;;;5006149;28;20054;-65
2023/10/20 02:43:01;;;;;;;1.48;1.25;;;9.50;99.90;;;;;;5002679;28;20048;-65
2023/10/20 02:45:26;;;;;;;15.55;3.05;;;9.50;99.90;;;;;;5004513;28;20095;-65
2023/10/20 02:47:52;;;;;;;1.38;1.25;;;9.50;99.90;;;;;;5006201;28;20057;-65
2023/10/20 02:50:18;;;;;;;0.10;0.10;;;9.50;99.90;;;;;;5006347;28;20085;-65
2023/10/20 02:52:44;;;;;;;0.60;0.60;;;9.40;99.90;;;;;;5000956;28;20129;-65
2023/10/20 02:55:10;;;;;;;4.90;1.65;;;9.40;99.90;;;;;;5008743;28;20049;-65
2023/10/20 02:57:36;;;;;;;0.93;0.93;;;9.50;99.90;;;;;;5014810;28;20042;-65
2023/10/20 03:00:17;;;;;;;1.27;1.17;;;9.50;99.90;;;;;;5009380;28;20038;-65
2023/10/20 03:02:47;;;;;;;0.10;0.10;;;9.50;99.90;;;;;;4997837;28;20050;-65
2023/10/20 03:05:12;;;;;;;15.82;2.60;;;9.50;99.90;;;;;;5004162;28;20393;-65
2023/10/20 03:07:38;;;;;;;0.70;0.70;;;9.40;99.90;;;;;;5005495;28;20152;-65
2023/10/20 03:10:04;;;;;;;0.10;0.10;;;9.40;99.90;;;;;;5004226;28;20065;-65
2023/10/20 03:12:29;;;;;;;0.20;0.20;;;9.50;99.90;;;;;;5001201;28;20104;-65
2023/10/20 03:14:55;;;;;;;0.17;0.17;;;9.40;99.90;;;;;;5004034;28;20046;-65
2023/10/20 03:17:21;;;;;;;0.35;0.35;;;9.40;99.90;;;;;;4998686;28;20096;-65
2023/10/20 03:19:48;;;;;;;0.10;0.10;;;9.50;99.90;;;;;;4998468;28;20509;-65
2023/10/20 03:22:13;;;;;;;0.63;0.63;;;9.40;99.90;;;;;;5002545;28;20046;-65
2023/10/20 03:24:40;;;;;;;0.75;0.75;;;9.40;99.90;;;;;;5001539;28;20050;-66
2023/10/20 03:27:07;;;;;;;1.63;1.30;;;9.40;99.90;;;;;;5002273;28;20057;-65
2023/10/20 03:29:32;;;;;;;0.30;0.30;;;9.40;99.90;;;;;;5005446;28;20066;-65
2023/10/20 03:31:58;;;;;;;0.20;0.20;;;9.40;99.90;;;;;;5004611;28;20386;-65
2023/10/20 03:34:24;;;;;;;0.30;0.30;;;9.50;99.90;;;;;;5003309;28;20445;-65
2023/10/20 03:36:52;;;;;;;0.10;0.10;;;9.60;99.90;;;;;;5000976;28;20124;-65
2023/10/20 03:39:20;;;;;;;0.25;0.25;;;9.50;99.90;;;;;;5007716;28;20050;-65
2023/10/20 03:41:49;;;;;;;0.28;0.28;;;9.40;99.90;;;;;;4999800;28;20058;-65
2023/10/20 03:44:14;;;;;;;0.10;0.10;;;9.40;99.90;;;;;;5006241;28;20034;-65
2023/10/20 03:46:49;;;;;;;1.17;1.10;;;9.40;99.90;;;;;;5009927;28;20099;-65
2023/10/20 03:49:18;;;;;;;0.10;0.10;;;9.40;99.90;;;;;;5004475;28;20121;-65
2023/10/20 03:51:53;;;;;;;0.65;0.65;;;9.40;99.90;;;;;;5002380;28;20057;-65
2023/10/20 03:54:19;;;;;;;4.78;0.93;;;9.30;99.90;;;;;;5005158;28;20045;-65
2023/10/20 03:56:45;;;;;;;0.38;0.38;;;9.40;99.90;;;;;;5008092;28;20045;-64
2023/10/20 03:59:11;;;;;;;1.58;1.48;;;9.40;99.90;;;;;;4999113;28;20042;-65
2023/10/20 04:01:38;;;;;;;0.47;0.47;;;9.40;99.90;;;;;;5003592;28;20701;-65
2023/10/20 04:04:08;;;;;;;0.40;0.40;;;9.30;99.90;;;;;;5001815;28;20658;-64
2023/10/20 04:06:35;;;;;;;0.10;0.10;;;9.30;99.90;;;;;;5004434;28;20489;-65
2023/10/20 04:09:01;;;;;;;0.30;0.30;;;9.30;99.90;;;;;;5006047;28;20111;-65
2023/10/20 04:11:27;;;;;;;0.50;0.50;;;9.20;99.90;;;;;;5000830;28;20057;-65
2023/10/20 04:13:53;;;;;;;0.10;0.10;;;9.30;99.90;;;;;;5005378;28;20129;-65
2023/10/20 04:16:19;;;;;;;0.77;0.77;;;9.40;99.90;;;;;;5001729;28;20109;-65
2023/10/20 04:18:46;;;;;;;0.43;0.43;;;9.30;99.90;;;;;;5003448;28;20120;-65
2023/10/20 04:21:13;;;;;;;0.13;0.13;;;9.30;99.90;;;;;;4999971;28;20049;-65
2023/10/20 04:23:39;;;;;;;2.05;1.30;;;9.40;99.90;;;;;;4997121;28;20046;-65
2023/10/20 04:26:15;;;;;;;0.28;0.28;;;9.30;99.90;;;;;;5002577;28;20050;-65
2023/10/20 04:28:42;;;;;;;0.30;0.30;;;9.30;99.90;;;;;;5002223;28;20050;-65
2023/10/20 04:58:34;;;;;;;6.55;3.00;;;9.20;99.90;;;;;;4997490;28;20053;-65
2023/10/20 05:01:28;;;;;;;0.65;0.65;;;9.30;99.90;;;;;;4998861;28;20444;-65
2023/10/20 05:03:53;;;;;;;0.28;0.25;;;9.40;99.90;;;;;;5003773;28;20046;-65
2023/10/20 05:06:40;;;;;;;0.43;0.43;;;9.40;99.90;;;;;;5001480;28;20536;-65
2023/10/20 05:09:08;;;;;;;1.75;1.23;;;9.30;99.90;;;;;;5001616;28;20861;-66
2023/10/20 05:11:34;;;;;;;0.10;0.10;;;9.20;99.90;;;;;;5005909;28;20057;-65
2023/10/20 05:14:00;;;;;;;0.30;0.30;;;9.30;99.90;;;;;;5006595;28;20054;-65
2023/10/20 05:16:28;;;;;;;0.20;0.20;;;9.20;99.90;;;;;;5003828;28;20130;-65
2023/10/20 05:18:55;;;;;;;0.30;0.30;;;9.30;99.90;;;;;;5006668;28;20097;-65
2023/10/20 05:21:21;;;;;;;0.80;0.80;;;9.20;99.90;;;;;;5005304;28;20061;-65
2023/10/20 05:23:49;;;;;;;0.10;0.10;;;9.20;99.90;;;;;;4997573;28;20393;-65
2023/10/20 05:26:15;;;;;;;0.50;0.50;;;9.20;99.90;;;;;;5001755;28;20573;-65
2023/10/20 05:28:40;;;;;;;0.00;0.00;;;9.20;99.90;;;;;;5005168;28;20049;-65
2023/10/20 05:31:07;;;;;;;0.20;0.20;;;9.20;99.90;;;;;;5000645;28;20042;-65
2023/10/20 05:33:33;;;;;;;0.52;0.52;;;9.30;99.90;;;;;;5001376;28;20057;-65
2023/10/20 05:36:05;;;;;;;0.65;0.57;;;9.30;99.90;;;;;;5004510;28;20037;-65
2023/10/20 05:38:31;;;;;;;1.02;0.95;;;9.30;99.90;;;;;;4998970;28;20065;-65
2023/10/20 05:40:58;;;;;;;0.20;0.20;;;9.30;99.90;;;;;;5001478;28;20585;-65
2023/10/20 05:43:25;;;;;;;0.40;0.40;;;9.20;99.90;;;;;;5000410;28;20045;-65
2023/10/20 05:45:51;;;;;;;0.35;0.35;;;9.20;99.90;;;;;;5011309;28;20054;-65
2023/10/20 05:48:16;;;;;;;0.10;0.10;;;9.30;99.90;;;;;;5012329;28;20045;-65
2023/10/20 05:50:42;;;;;;;0.80;0.77;;;9.30;99.90;;;;;;5009729;28;20044;-66
2023/10/20 05:53:08;;;;;;;0.93;0.93;;;9.30;99.90;;;;;;4999876;28;20038;-65
2023/10/20 05:55:34;;;;;;;0.10;0.10;;;9.40;99.90;;;;;;5006740;28;20046;-65
2023/10/20 05:58:00;;;;;;;0.52;0.52;;;9.30;99.90;;;;;;5003589;28;20112;-65
2023/10/20 06:00:25;;;;;;;0.30;0.30;;;9.30;99.90;;;;;;5009908;28;20124;-65
2023/10/20 06:02:51;;;;;;;0.35;0.35;;;9.30;99.90;;;;;;5006597;28;20141;-65
2023/10/20 06:05:16;;;;;;;0.10;0.10;;;9.30;99.90;;;;;;5009651;28;20092;-65
2023/10/20 06:07:43;;;;;;;0.47;0.47;;;9.30;99.90;;;;;;5000861;28;20483;-65
2023/10/20 06:10:11;;;;;;;0.20;0.20;;;9.30;99.90;;;;;;5006746;28;20043;-65
2023/10/20 06:12:38;;;;;;;1.50;1.35;;;9.40;99.90;;;;;;5006449;28;20120;-65
2023/10/20 06:15:06;;;;;;;6.38;1.45;;;9.40;99.90;;;;;;5002532;28;20570;-65
2023/10/20 06:17:32;;;;;;;0.13;0.13;;;9.50;99.90;;;;;;5007278;28;20042;-65
2023/10/20 06:19:58;;;;;;;2.33;2.13;;;9.40;99.90;;;;;;5001453;28;20046;-65
2023/10/20 06:22:23;;;;;;;0.10;0.10;;;9.50;99.90;;;;;;5006960;28;20037;-65
2023/10/20 06:24:49;;;;;;;0.20;0.20;;;9.40;99.90;;;;;;5010097;28;20833;-65
2023/10/20 06:27:14;;;;;;;0.32;0.32;;;9.40;99.90;;;;;;5007959;28;20052;-65
2023/10/20 06:29:48;;;;;;;0.30;0.30;;;9.50;99.90;;;;;;5004128;28;20080;-65
2023/10/20 06:35:00;;;;;;;1.90;1.20;;;9.30;99.90;;;;;;5001938;28;20049;-65
2023/10/20 06:37:36;;;;;;;0.03;0.03;;;9.40;99.90;;;;;;4997628;28;20042;-65
2023/10/20 06:40:05;;;;;;;0.10;0.10;;;9.40;99.90;;;;;;5007330;28;20046;-65
2023/10/20 06:42:31;;;;;;;0.10;0.10;;;9.40;99.90;;;;;;5007090;28;20770;-65
2023/10/20 06:44:56;;;;;;;0.10;0.10;;;9.40;99.90;;;;;;5009151;28;20073;-65
2023/10/20 06:47:22;;;;;;;0.10;0.10;;;9.40;99.90;;;;;;5002902;28;20059;-65
2023/10/20 06:49:48;;;;;;;2.53;0.73;;;9.40;99.90;;;;;;5001369;28;20045;-65
2023/10/20 06:52:20;;;;;;;0.20;0.20;;;9.40;99.90;;;;;;5007657;28;20498;-64
2023/10/20 06:54:46;;;;;;;0.10;0.10;;;9.30;99.90;;;;;;5007529;28;20046;-65
2023/10/20 06:57:13;;;;;;;0.17;0.17;;;9.40;99.90;;;;;;5002294;28;20038;-65
2023/10/20 06:59:39;;;;;;;0.30;0.30;;;9.40;99.90;;;;;;5008376;28;20034;-66
2023/10/20 07:02:05;;;;;;;0.10;0.10;;;9.50;99.90;;;;;;5010090;28;20038;-65
2023/10/20 07:04:31;;;;;;;1.00;0.95;;;9.40;99.90;;;;;;5018991;28;20571;-66
2023/10/20 07:06:57;;;;;;;0.00;0.00;;;9.40;99.90;;;;;;5007622;28;20042;-66
2023/10/20 07:09:23;;;;;;;0.20;0.20;;;9.40;99.90;;;;;;5010250;28;20037;-66
2023/10/20 07:11:49;;;;;;;0.10;0.10;;;9.20;99.90;;;;;;5006662;28;20478;-65
2023/10/20 07:14:15;;;;;;;0.10;0.10;;;9.30;99.90;;;;;;5008016;28;20394;-65
2023/10/20 07:16:41;;;;;;;0.10;0.10;;;9.40;99.90;;;;;;5019400;28;20405;-65
2023/10/20 07:19:08;;;;;;;2.47;0.90;;;9.40;99.90;;;;;;5003612;28;20499;-66
2023/10/20 07:21:34;;;;;;;0.10;0.10;;;9.40;99.90;;;;;;5005245;28;20042;-66
2023/10/20 07:24:02;;;;;;;0.10;0.10;;;9.40;99.90;;;;;;5006399;28;20042;-66
2023/10/20 07:26:28;;;;;;;0.40;0.40;;;9.30;99.90;;;;;;5011197;28;20497;-66
2023/10/20 07:28:54;;;;;;;0.10;0.10;;;9.50;99.90;;;;;;5001978;28;20050;-66
2023/10/20 07:31:21;;;;;;;0.25;0.25;;;9.40;99.90;;;;;;5003000;28;21052;-66
2023/10/20 07:33:49;;;;;;;0.20;0.20;;;9.50;99.90;;;;;;5010416;28;20117;-66
2023/10/20 07:36:15;;;;;;;0.10;0.10;;;9.40;99.90;;;;;;5010928;28;20056;-66
2023/10/20 07:38:42;;;;;;;0.10;0.10;;;9.50;99.90;;;;;;5001761;28;20041;-65
2023/10/20 07:41:11;;;;;;;0.28;0.28;;;9.50;99.90;;;;;;5007172;28;20054;-66
2023/10/20 07:43:40;;;;;;;0.00;0.00;;;9.40;99.90;;;;;;5007162;28;20408;-66
2023/10/20 07:46:06;;;;;;;0.10;0.10;;;9.50;99.90;;;;;;5005751;28;20101;-66
2023/10/20 07:48:32;;;;;;;1.00;0.75;;;9.50;99.90;;;;;;5008745;28;20067;-66
2023/10/20 07:51:02;;;;;;;0.00;0.00;;;9.50;99.90;;;;;;5006626;28;20438;-66
2023/10/20 07:53:29;;;;;;;0.00;0.00;;;9.40;99.90;;;;;;5005949;28;20081;-65
2023/10/20 07:55:55;;;;;;;0.10;0.10;;;9.40;99.90;;;;;;4999299;28;20049;-66
2023/10/20 07:58:21;;;;;;;0.10;0.10;;;9.40;99.90;;;;;;5003711;28;20164;-66
2023/10/20 08:00:46;;;;;;;0.52;0.52;;;9.40;99.90;;;;;;5008283;28;20586;-66
2023/10/20 08:03:12;;;;;;;0.10;0.10;;;9.40;99.90;;;;;;5000748;28;20124;-66
2023/10/20 08:05:38;;;;;;;0.10;0.10;;;9.40;99.90;;;;;;5006429;28;20482;-67
2023/10/20 08:08:04;;;;;;;0.20;0.20;;;9.40;99.90;;;;;;5005434;28;20089;-65
2023/10/20 08:10:31;;;;;;;0.50;0.50;;;9.30;99.90;;;;;;5002164;28;20092;-66
2023/10/20 08:12:57;;;;;;;1.23;1.17;;;9.20;99.90;;;;;;5007206;28;20080;-67
2023/10/20 08:15:23;;;;;;;0.40;0.40;;;9.20;99.90;;;;;;5009717;28;20069;-66
2023/10/20 08:17:50;;;;;;;0.10;0.10;;;9.20;99.90;;;;;;5004999;28;20054;-66
2023/10/20 08:20:16;;;;;;;0.05;0.05;;;9.00;99.90;;;;;;5001314;28;20037;-66
2023/10/20 08:22:43;;;;;;;2.58;0.88;;;9.20;99.90;;;;;;5006326;28;20044;-66
2023/10/20 08:25:08;;;;;;;0.10;0.10;;;9.20;99.90;;;;;;5009028;28;20045;-66
2023/10/20 08:27:34;;;;;;;0.15;0.15;;;9.20;99.90;;;;;;5004540;28;20038;-66
2023/10/20 08:30:00;;;;;;;0.70;0.70;;;9.20;99.90;;;;;;4997529;28;20050;-66
2023/10/20 08:32:25;;;;;;;0.43;0.43;;;9.10;99.90;;;;;;5009742;28;20494;-67
2023/10/20 08:34:51;;;;;;;0.00;0.00;;;9.20;99.90;;;;;;5010138;28;20054;-66
2023/10/20 08:37:17;;;;;;;0.00;0.00;;;9.30;99.90;;;;;;5001413;28;20073;-66
2023/10/20 08:39:46;;;;;;;0.10;0.10;;;9.30;99.90;;;;;;5003119;28;20717;-66
2023/10/20 08:42:19;;;;;;;0.10;0.10;;;9.30;99.90;;;;;;5008709;28;20068;-66
2023/10/20 08:44:45;;;;;;;0.00;0.00;;;9.40;99.90;;;;;;4998169;28;20375;-66
2023/10/20 08:47:13;;;;;;;0.10;0.10;;;9.10;99.90;;;;;;5001519;28;20478;-66
2023/10/20 08:49:43;;;;;;;0.10;0.10;;;9.20;99.90;;;;;;5009658;28;20171;-66
2023/10/20 08:52:10;;;;;;;3.03;0.90;;;9.30;99.90;;;;;;5005981;28;20076;-66
2023/10/20 08:54:37;;;;;;;0.03;0.03;;;9.20;99.90;;;;;;5001091;28;20088;-65
2023/10/20 08:57:03;;;;;;;0.10;0.10;;;9.30;99.90;;;;;;5001348;28;20607;-66
2023/10/20 08:59:29;;;;;;;0.25;0.25;;;9.20;99.90;;;;;;5001386;28;20046;-66
2023/10/20 09:01:56;;;;;;;0.10;0.10;;;9.30;99.90;;;;;;5007749;28;20040;-66
2023/10/20 09:04:23;;;;;;;0.10;0.10;;;9.30;99.90;;;;;;5008542;28;20037;-66
2023/10/20 09:06:49;;;;;;;0.08;0.08;;;9.30;99.90;;;;;;5000343;28;20147;-66
2023/10/20 09:09:15;;;;;;;0.10;0.10;;;9.20;99.90;;;;;;5001333;28;20042;-66
2023/10/20 09:11:41;;;;;;;0.10;0.10;;;9.20;99.90;;;;;;5008243;28;20038;-66
2023/10/20 09:14:07;;;;;;;0.03;0.03;;;9.20;99.90;;;;;;5009808;28;20394;-67
2023/10/20 09:16:37;;;;;;;0.00;0.00;;;9.10;99.90;;;;;;5009817;28;20059;-66
2023/10/20 09:19:03;;;;;;;0.10;0.10;;;9.20;99.90;;;;;;5005089;28;20038;-66
2023/10/20 09:21:29;;;;;;;0.17;0.17;;;9.10;99.90;;;;;;5011826;28;20042;-66
2023/10/20 09:24:03;;;;;;;0.45;0.45;;;9.10;99.90;;;;;;5004703;28;20494;-66
2023/10/20 09:26:36;;;;;;;0.22;0.22;;;9.10;99.90;;;;;;5007278;28;20113;-66
2023/10/20 09:29:06;;;;;;;0.10;0.10;;;9.00;99.90;;;;;;5007480;28;20053;-66
2023/10/20 09:31:33;;;;;;;0.00;0.00;;;9.10;99.90;;;;;;5001390;28;20046;-66
2023/10/20 09:33:59;;;;;;;0.10;0.10;;;9.10;99.90;;;;;;5001655;28;20039;-66
2023/10/20 09:36:28;;;;;;;0.40;0.40;;;9.20;99.90;;;;;;5013805;28;20592;-66
2023/10/20 09:38:55;;;;;;;0.10;0.10;;;9.20;99.90;;;;;;5009166;28;20482;-66
2023/10/20 09:41:23;;;;;;;0.10;0.10;;;9.20;99.90;;;;;;5006962;28;20057;-65
2023/10/20 09:43:53;;;;;;;0.00;0.00;;;9.20;99.90;;;;;;5005182;28;20429;-66
2023/10/20 09:46:29;;;;;;;0.00;0.00;;;9.10;99.90;;;;;;5015365;28;20065;-65
2023/10/20 09:48:59;;;;;;;0.00;0.00;;;9.10;99.90;;;;;;5008408;28;20434;-66
2023/10/20 09:51:26;;;;;;;0.10;0.10;;;9.00;99.90;;;;;;5009362;28;20046;-66
2023/10/20 09:53:52;;;;;;;0.10;0.10;;;8.90;99.90;;;;;;5004804;28;20042;-66
2023/10/20 09:56:19;;;;;;;1.08;0.75;;;8.80;99.90;;;;;;5006056;28;20332;-66
2023/10/20 09:58:44;;;;;;;0.00;0.00;;;9.00;99.90;;;;;;5005246;28;20046;-66
2023/10/20 10:01:15;;;;;;;0.10;0.10;;;9.00;99.90;;;;;;5001779;28;20393;-65
2023/10/20 10:03:47;;;;;;;0.00;0.00;;;8.90;99.90;;;;;;5007511;28;20506;-65
2023/10/20 10:06:15;;;;;;;0.20;0.20;;;8.90;99.90;;;;;;5008127;28;20053;-66
2023/10/20 10:08:43;;;;;;;6.07;0.70;;;9.00;99.90;;;;;;5011790;28;20050;-66
2023/10/20 10:11:26;;;;;;;0.20;0.20;;;8.90;99.90;;;;;;5009956;28;20054;-66
2023/10/20 10:14:03;;;;;;;0.10;0.10;;;8.90;99.90;;;;;;5004811;28;20141;-65
2023/10/20 10:16:30;;;;;;;0.10;0.10;;;8.80;99.90;;;;;;5009077;28;20071;-66
2023/10/20 10:19:06;;;;;;;0.00;0.00;;;8.80;99.90;;;;;;5005735;28;20050;-67
2023/10/20 10:21:37;;;;;;;0.65;0.65;;;8.80;99.90;;;;;;5000827;28;20042;-66
2023/10/20 10:24:07;;;;;;;0.00;0.00;;;8.80;99.90;;;;;;5008383;28;20046;-66
2023/10/20 10:26:33;;;;;;;0.10;0.10;;;8.80;99.90;;;;;;5007980;28;20037;-66
2023/10/20 10:28:59;;;;;;;3.63;2.15;;;8.70;99.90;;;;;;5000909;28;20047;-66
2023/10/20 10:31:35;;;;;;;0.47;0.47;;;8.80;99.90;;;;;;5009809;28;20414;-66
2023/10/20 10:34:04;;;;;;;0.25;0.25;;;9.00;99.90;;;;;;5003882;28;20039;-66
2023/10/20 10:36:42;;;;;;;0.30;0.30;;;8.90;99.90;;;;;;5008479;28;20124;-66
2023/10/20 10:39:08;;;;;;;0.10;0.10;;;8.70;99.90;;;;;;5007917;28;20092;-67
2023/10/20 10:41:34;;;;;;;0.10;0.10;;;8.80;99.90;;;;;;5006924;28;20074;-67
2023/10/20 10:44:00;;;;;;;0.10;0.10;;;8.80;99.90;;;;;;5022011;28;20065;-66
2023/10/20 10:46:35;;;;;;;0.10;0.10;;;8.80;99.90;;;;;;4996124;28;20045;-66
2023/10/20 10:49:09;;;;;;;1.08;1.05;;;8.70;99.90;;;;;;5010805;28;20124;-66
2023/10/20 10:51:44;;;;;;;0.13;0.13;;;8.70;99.90;;;;;;5008160;28;20092;-66
2023/10/20 10:54:09;;;;;;;0.10;0.10;;;8.70;99.90;;;;;;5002232;28;20038;-66
2023/10/20 10:56:35;;;;;;;0.47;0.47;;;8.80;99.90;;;;;;5008054;28;20046;-66
2023/10/20 10:59:00;;;;;;;0.63;0.55;;;8.50;99.90;;;;;;5003452;28;20038;-65
2023/10/20 11:01:27;;;;;;;0.05;0.05;;;8.80;99.90;;;;;;4999848;28;20041;-67
2023/10/20 11:03:53;;;;;;;0.00;0.00;;;8.70;99.90;;;;;;5006482;28;20100;-66
2023/10/20 11:06:19;;;;;;;0.00;0.00;;;8.60;99.90;;;;;;5004745;28;20030;-67
2023/10/20 11:08:46;;;;;;;0.10;0.10;;;8.60;99.90;;;;;;5000903;28;20052;-66
2023/10/20 11:11:12;;;;;;;0.10;0.10;;;8.60;99.90;;;;;;5001867;28;20042;-66
2023/10/20 11:13:40;;;;;;;0.10;0.10;;;8.70;99.90;;;;;;5011413;28;20498;-65
2023/10/20 11:16:06;;;;;;;0.65;0.65;;;8.70;99.90;;;;;;5018219;28;20081;-66
2023/10/20 11:18:32;;;;;;;0.00;0.00;;;8.70;99.90;;;;;;5009675;28;20112;-66
2023/10/20 11:20:59;;;;;;;0.00;0.00;;;8.70;99.90;;;;;;5007941;28;20042;-66
2023/10/20 11:23:29;;;;;;;0.10;0.10;;;8.60;99.90;;;;;;5020655;28;20046;-66
2023/10/20 11:25:56;;;;;;;0.00;0.00;;;8.60;99.90;;;;;;5007056;28;20161;-66
2023/10/20 11:28:22;;;;;;;0.20;0.20;;;8.60;99.90;;;;;;4996673;28;20072;-67
2023/10/20 11:30:48;;;;;;;0.10;0.10;;;8.60;99.90;;;;;;5010030;28;20045;-66
2023/10/20 11:33:15;;;;;;;0.10;0.10;;;8.70;99.90;;;;;;5000059;28;20057;-66
2023/10/20 11:35:41;;;;;;;0.10;0.10;;;8.60;99.90;;;;;;5002256;28;20050;-66
2023/10/20 11:38:06;;;;;;;0.20;0.20;;;8.60;99.90;;;;;;5013283;28;20042;-67
2023/10/20 11:40:32;;;;;;;0.13;0.13;;;8.60;99.90;;;;;;4995918;28;20050;-66
2023/10/20 11:42:58;;;;;;;0.00;0.00;;;8.70;99.90;;;;;;5002265;28;20049;-66
2023/10/20 11:45:24;;;;;;;0.10;0.10;;;8.60;99.90;;;;;;4995973;28;20049;-66
2023/10/20 11:47:51;;;;;;;0.00;0.00;;;8.70;99.90;;;;;;5010342;28;20049;-66
2023/10/20 11:50:19;;;;;;;0.10;0.10;;;8.70;99.90;;;;;;5009622;28;20077;-66
2023/10/20 11:52:45;;;;;;;0.17;0.17;;;8.80;99.90;;;;;;5006468;28;20755;-65
2023/10/20 11:55:11;;;;;;;0.10;0.10;;;8.80;99.90;;;;;;5003424;28;20045;-66
2023/10/20 11:57:40;;;;;;;0.25;0.25;;;8.60;99.90;;;;;;5008051;28;20124;-66
2023/10/20 12:00:09;;;;;;;0.10;0.10;;;8.80;99.90;;;;;;5007375;28;20038;-66
2023/10/20 12:02:36;;;;;;;0.10;0.10;;;8.90;99.90;;;;;;4999709;28;20041;-66
2023/10/20 12:05:02;;;;;;;0.10;0.10;;;8.90;99.90;;;;;;5009808;28;20504;-66
2023/10/20 12:07:28;;;;;;;0.10;0.10;;;8.70;99.90;;;;;;5001834;28;20042;-66
2023/10/20 12:09:54;;;;;;;0.10;0.10;;;8.80;99.90;;;;;;5004689;28;20378;-66
2023/10/20 12:12:20;;;;;;;0.08;0.08;;;8.90;99.90;;;;;;5007254;28;20041;-66
2023/10/20 12:14:46;;;;;;;0.00;0.00;;;8.80;99.90;;;;;;5004089;28;20041;-65
2023/10/20 12:17:12;;;;;;;1.00;0.90;;;8.70;99.90;;;;;;5001376;28;20049;-66
2023/10/20 12:19:38;;;;;;;0.10;0.10;;;8.80;99.90;;;;;;5004388;28;20070;-66
2023/10/20 12:22:04;;;;;;;0.10;0.10;;;8.70;99.90;;;;;;5008156;28;20100;-66
2023/10/20 12:24:30;;;;;;;0.00;0.00;;;8.80;99.90;;;;;;4998541;28;20054;-66
2023/10/20 12:26:56;;;;;;;0.10;0.10;;;8.80;99.90;;;;;;5010488;28;20038;-66
2023/10/20 12:29:22;;;;;;;0.00;0.00;;;8.60;99.90;;;;;;4999052;28;20152;-66
2023/10/20 12:31:48;;;;;;;0.00;0.00;;;8.90;99.90;;;;;;4995913;28;20077;-65
2023/10/20 12:34:14;;;;;;;0.10;0.10;;;8.70;99.90;;;;;;5001344;28;20084;-65
2023/10/20 12:36:42;;;;;;;0.00;0.00;;;8.70;99.90;;;;;;4998741;28;20046;-65
2023/10/20 12:39:09;;;;;;;0.10;0.10;;;8.60;99.90;;;;;;4999991;28;20084;-65
2023/10/20 12:41:35;;;;;;;0.17;0.17;;;8.60;99.90;;;;;;5006450;28;20107;-66
2023/10/20 12:44:02;;;;;;;0.00;0.00;;;8.60;99.90;;;;;;4999640;28;20050;-65
2023/10/20 12:46:28;;;;;;;0.00;0.00;;;8.60;99.90;;;;;;5012811;28;20072;-66
2023/10/20 12:48:54;;;;;;;0.00;0.00;;;8.60;99.90;;;;;;5004675;28;20034;-65
2023/10/20 12:51:19;;;;;;;0.00;0.00;;;8.60;99.90;;;;;;5001709;28;20046;-65
2023/10/20 12:53:45;;;;;;;0.10;0.10;;;8.70;99.90;;;;;;5001723;28;20046;-65
2023/10/20 12:56:11;;;;;;;0.00;0.00;;;8.70;99.90;;;;;;5002567;28;20434;-66
2023/10/20 12:58:37;;;;;;;0.00;0.00;;;8.70;99.90;;;;;;4998016;28;20108;-66
2023/10/20 13:01:02;;;;;;;0.10;0.10;;;8.60;99.90;;;;;;5002650;28;21734;-66
2023/10/20 13:03:29;;;;;;;0.10;0.10;;;8.50;99.90;;;;;;5002110;28;20050;-65
2023/10/20 13:05:55;;;;;;;0.10;0.10;;;8.50;99.90;;;;;;5003393;28;20101;-65
2023/10/20 13:08:21;;;;;;;0.10;0.10;;;8.60;99.90;;;;;;5001641;28;20075;-66
2023/10/20 13:10:47;;;;;;;0.00;0.00;;;8.60;99.90;;;;;;4993029;28;20093;-65
2023/10/20 13:13:14;;;;;;;0.10;0.10;;;8.60;99.90;;;;;;5006769;28;20066;-65
2023/10/20 13:15:40;;;;;;;0.20;0.20;;;8.70;99.90;;;;;;4998455;28;20081;-65
2023/10/20 13:18:05;;;;;;;0.05;0.05;;;8.70;99.90;;;;;;5003955;28;20057;-65
2023/10/20 13:20:31;;;;;;;3.72;0.65;;;8.60;99.90;;;;;;5006124;28;20081;-65
2023/10/20 13:22:57;;;;;;;0.05;0.05;;;8.60;99.90;;;;;;5000976;28;20103;-65
2023/10/20 13:25:22;;;;;;;0.30;0.30;;;8.80;99.90;;;;;;4995294;28;20084;-65
2023/10/20 13:27:49;;;;;;;0.10;0.10;;;8.80;99.90;;;;;;5001607;28;20449;-65